Time;durP1;ratioP1;P1;durP2;ratioP2;P2;SDS_P1;SDS_P2;PMS_P1;PMS_P2;Temp;Humidity;BMP_temperature;BMP_pressure;BME280_temperature;BME280_humidity;BME280_pressure;Samples;Min_cycle;Max_cycle;Signal;HPM_P1;HPM_P2
2022/01/30 00:00:11;;;;;;;3.40;1.63;;;;;;;;;;5080380;28;20211;-68
2022/01/30 00:02:58;;;;;;;3.77;1.77;;;;;;;;;;5087565;28;20207;-67
2022/01/30 00:05:45;;;;;;;2.93;1.60;;;;;;;;;;5077170;28;21017;-68
2022/01/30 00:08:32;;;;;;;3.00;1.80;;;;;;;;;;5086017;28;20322;-69
2022/01/30 00:11:22;;;;;;;1.97;1.40;;;;;;;;;;5077588;28;20284;-68
2022/01/30 00:14:12;;;;;;;2.50;1.73;;;;;;;;;;5083330;28;20230;-68
2022/01/30 00:17:06;;;;;;;1.83;1.50;;;;;;;;;;5083501;28;20199;-67
2022/01/30 00:19:58;;;;;;;2.67;1.63;;;;;;;;;;5079373;28;20282;-68
2022/01/30 00:22:47;;;;;;;2.03;1.63;;;;;;;;;;5088151;28;20214;-67
2022/01/30 00:25:45;;;;;;;3.40;1.70;;;;;;;;;;5078239;28;20236;-69
2022/01/30 00:28:32;;;;;;;2.60;1.50;;;;;;;;;;5084602;28;20238;-67
2022/01/30 00:31:21;;;;;;;3.40;2.00;;;;;;;;;;5080826;28;20230;-68
2022/01/30 00:34:09;;;;;;;3.00;1.67;;;;;;;;;;5079197;28;20241;-68
2022/01/30 00:36:56;;;;;;;3.07;1.87;;;;;;;;;;5084843;28;20211;-67
2022/01/30 00:39:43;;;;;;;2.73;1.70;;;;;;;;;;5078250;28;20215;-68
2022/01/30 00:42:30;;;;;;;2.90;1.50;;;;;;;;;;5086835;28;20688;-72
2022/01/30 00:45:17;;;;;;;2.63;1.63;;;;;;;;;;5080108;28;20285;-70
2022/01/30 00:48:05;;;;;;;1.73;1.40;;;;;;;;;;5082591;28;20628;-70
2022/01/30 00:50:53;;;;;;;3.30;2.10;;;;;;;;;;5084167;28;20309;-70
2022/01/30 00:53:40;;;;;;;3.20;1.80;;;;;;;;;;5078046;28;20299;-70
2022/01/30 00:56:27;;;;;;;3.13;1.87;;;;;;;;;;5085494;28;20267;-70
2022/01/30 00:59:14;;;;;;;1.93;1.67;;;;;;;;;;5079551;28;20678;-70
2022/01/30 01:02:01;;;;;;;2.80;1.93;;;;;;;;;;5080617;28;20231;-70
2022/01/30 01:04:49;;;;;;;2.77;2.00;;;;;;;;;;5082538;28;20299;-70
2022/01/30 01:07:41;;;;;;;3.00;1.97;;;;;;;;;;5079723;28;20692;-70
2022/01/30 01:10:36;;;;;;;3.60;2.17;;;;;;;;;;5080326;28;20206;-70
2022/01/30 01:13:48;;;;;;;2.63;1.50;;;;;;;;;;5078071;28;20239;-70
2022/01/30 01:25:50;;;;;;;2.63;1.87;;;;;;;;;;5081892;28;20289;-70
2022/01/30 01:28:37;;;;;;;2.37;1.70;;;;;;;;;;5077857;28;20305;-69
2022/01/30 01:31:24;;;;;;;2.33;1.60;;;;;;;;;;5082391;28;20709;-71
2022/01/30 01:34:27;;;;;;;3.23;1.60;;;;;;;;;;5080453;28;20235;-70
2022/01/30 01:37:14;;;;;;;2.50;1.80;;;;;;;;;;5076879;28;20262;-70
2022/01/30 01:40:02;;;;;;;2.70;1.83;;;;;;;;;;5085975;28;20291;-70
2022/01/30 01:42:49;;;;;;;2.93;1.83;;;;;;;;;;5077142;28;20203;-69
2022/01/30 01:45:39;;;;;;;2.57;1.80;;;;;;;;;;5078803;28;20198;-70
2022/01/30 01:48:26;;;;;;;3.30;1.80;;;;;;;;;;5080319;28;20281;-70
2022/01/30 01:51:18;;;;;;;4.13;1.67;;;;;;;;;;5078789;28;20591;-70
2022/01/30 01:54:05;;;;;;;2.93;1.70;;;;;;;;;;5087222;28;20339;-70
2022/01/30 01:56:53;;;;;;;3.13;1.77;;;;;;;;;;5077269;28;20647;-70
2022/01/30 01:59:41;;;;;;;1.70;1.37;;;;;;;;;;5090472;28;20574;-70
2022/01/30 02:02:28;;;;;;;2.00;1.60;;;;;;;;;;5086878;28;20260;-73
2022/01/30 02:05:15;;;;;;;2.00;1.30;;;;;;;;;;5086844;28;20207;-73
2022/01/30 02:11:07;;;;;;;4.00;1.83;;;;;;;;;;5082402;28;20238;-74
2022/01/30 02:26:18;;;;;;;2.90;1.60;;;;;;;;;;5081442;28;20382;-73
2022/01/30 02:29:05;;;;;;;3.33;1.80;;;;;;;;;;5083599;28;20743;-73
2022/01/30 02:31:55;;;;;;;2.03;1.47;;;;;;;;;;5083319;28;20621;-73
2022/01/30 02:34:43;;;;;;;3.07;1.73;;;;;;;;;;5084198;28;20218;-74
2022/01/30 02:37:30;;;;;;;2.43;1.63;;;;;;;;;;5089299;28;20238;-73
2022/01/30 02:40:18;;;;;;;3.23;1.83;;;;;;;;;;5081366;28;20242;-73
2022/01/30 02:43:05;;;;;;;4.30;1.80;;;;;;;;;;5089893;28;20776;-73
2022/01/30 02:46:04;;;;;;;3.10;2.10;;;;;;;;;;5080179;28;20204;-74
2022/01/30 02:48:54;;;;;;;3.53;1.90;;;;;;;;;;5085380;28;20200;-74
2022/01/30 02:51:50;;;;;;;1.80;1.70;;;;;;;;;;5082598;28;20253;-73
2022/01/30 02:54:38;;;;;;;3.57;1.70;;;;;;;;;;5081988;28;20207;-74
2022/01/30 02:57:26;;;;;;;2.17;1.80;;;;;;;;;;5089192;28;20231;-73
2022/01/30 03:00:14;;;;;;;3.63;1.60;;;;;;;;;;5081344;28;20235;-74
2022/01/30 03:03:01;;;;;;;1.97;1.40;;;;;;;;;;5083722;28;20307;-74
2022/01/30 03:05:48;;;;;;;3.73;1.50;;;;;;;;;;5085311;28;20356;-74
2022/01/30 03:08:34;;;;;;;2.53;1.50;;;;;;;;;;5082498;28;20207;-74
2022/01/30 03:11:22;;;;;;;3.10;1.63;;;;;;;;;;5089338;28;20321;-74
2022/01/30 03:14:10;;;;;;;3.10;1.90;;;;;;;;;;5082031;28;20333;-73
2022/01/30 03:16:57;;;;;;;1.50;1.27;;;;;;;;;;5089835;28;20257;-73
2022/01/30 03:19:44;;;;;;;1.93;1.20;;;;;;;;;;5080676;28;20207;-74
2022/01/30 03:22:32;;;;;;;2.60;1.47;;;;;;;;;;5088680;28;20273;-73
2022/01/30 03:25:19;;;;;;;4.00;1.50;;;;;;;;;;5084975;28;20210;-73
2022/01/30 03:28:06;;;;;;;2.00;1.33;;;;;;;;;;5082438;28;20218;-73
2022/01/30 03:30:58;;;;;;;2.53;1.10;;;;;;;;;;5088430;28;20211;-73
2022/01/30 03:33:45;;;;;;;1.67;1.40;;;;;;;;;;5078266;28;20217;-73
2022/01/30 03:36:32;;;;;;;1.43;0.83;;;;;;;;;;5085265;28;20265;-73
2022/01/30 03:39:19;;;;;;;1.63;1.30;;;;;;;;;;5080893;28;20678;-74
2022/01/30 03:42:07;;;;;;;1.57;1.20;;;;;;;;;;5081725;28;20258;-73
2022/01/30 03:44:54;;;;;;;1.43;1.30;;;;;;;;;;5085614;28;20218;-74
2022/01/30 03:47:43;;;;;;;2.03;1.27;;;;;;;;;;5079220;28;20211;-73
2022/01/30 03:50:30;;;;;;;1.00;1.00;;;;;;;;;;5087567;28;20279;-73
2022/01/30 03:53:17;;;;;;;1.20;1.10;;;;;;;;;;5078471;28;20314;-73
2022/01/30 03:56:04;;;;;;;1.83;0.93;;;;;;;;;;5086427;28;20380;-73
2022/01/30 03:58:51;;;;;;;1.73;1.30;;;;;;;;;;5082717;28;20279;-73
2022/01/30 04:01:38;;;;;;;1.00;0.90;;;;;;;;;;5082324;28;20235;-74
2022/01/30 04:04:27;;;;;;;1.53;1.40;;;;;;;;;;5086541;28;20217;-73
2022/01/30 04:07:14;;;;;;;1.17;0.80;;;;;;;;;;5076605;28;20219;-74
2022/01/30 04:10:02;;;;;;;1.70;1.20;;;;;;;;;;5090735;28;20263;-74
2022/01/30 04:12:49;;;;;;;1.60;1.50;;;;;;;;;;5080654;28;20245;-74
2022/01/30 04:15:37;;;;;;;1.50;0.97;;;;;;;;;;5084922;28;20339;-74
2022/01/30 04:18:24;;;;;;;0.93;0.90;;;;;;;;;;5085904;28;20687;-74
2022/01/30 04:21:13;;;;;;;1.63;1.13;;;;;;;;;;5081986;28;20679;-73
2022/01/30 04:24:00;;;;;;;0.97;0.87;;;;;;;;;;5086586;28;20276;-74
2022/01/30 04:26:47;;;;;;;1.60;1.03;;;;;;;;;;5079805;28;20659;-74
2022/01/30 04:29:34;;;;;;;0.97;0.93;;;;;;;;;;5088226;28;20245;-73
2022/01/30 04:32:23;;;;;;;0.70;0.70;;;;;;;;;;5079711;28;20255;-73
2022/01/30 04:35:14;;;;;;;1.80;0.93;;;;;;;;;;5083374;28;20214;-73
2022/01/30 04:38:14;;;;;;;1.23;0.83;;;;;;;;;;5083398;28;20210;-74
2022/01/30 04:41:27;;;;;;;0.90;0.70;;;;;;;;;;5076626;28;20549;-73
2022/01/30 04:53:50;;;;;;;0.57;0.50;;;;;;;;;;5089632;28;20222;-73
2022/01/30 04:56:57;;;;;;;0.90;0.70;;;;;;;;;;5082555;28;20202;-74
2022/01/30 04:59:53;;;;;;;1.10;0.60;;;;;;;;;;5081199;28;20206;-74
2022/01/30 05:02:51;;;;;;;0.60;0.60;;;;;;;;;;5085926;28;20201;-74
2022/01/30 05:05:52;;;;;;;0.43;0.43;;;;;;;;;;5078927;28;20208;-73
2022/01/30 05:08:41;;;;;;;0.50;0.43;;;;;;;;;;5083306;28;20215;-74
2022/01/30 05:11:28;;;;;;;0.70;0.50;;;;;;;;;;5081261;28;20713;-74
2022/01/30 05:14:16;;;;;;;0.70;0.50;;;;;;;;;;5081755;28;20267;-74
2022/01/30 05:17:05;;;;;;;0.93;0.40;;;;;;;;;;5086719;28;20199;-74
2022/01/30 05:19:52;;;;;;;0.70;0.67;;;;;;;;;;5076701;28;20214;-73
2022/01/30 05:22:40;;;;;;;0.43;0.43;;;;;;;;;;5087894;28;20300;-74
2022/01/30 05:25:28;;;;;;;0.80;0.43;;;;;;;;;;5078168;28;20227;-74
2022/01/30 05:28:17;;;;;;;0.60;0.60;;;;;;;;;;5082193;28;20207;-75
2022/01/30 05:31:04;;;;;;;0.20;0.20;;;;;;;;;;5084055;28;20203;-74
2022/01/30 05:33:52;;;;;;;0.70;0.57;;;;;;;;;;5079451;28;20257;-74
2022/01/30 05:36:40;;;;;;;0.50;0.47;;;;;;;;;;5085515;28;20309;-74
2022/01/30 05:39:27;;;;;;;0.50;0.40;;;;;;;;;;5079409;28;20616;-74
2022/01/30 05:42:18;;;;;;;0.40;0.40;;;;;;;;;;5085761;28;20355;-74
2022/01/30 05:45:16;;;;;;;0.40;0.40;;;;;;;;;;5080610;28;20345;-74
2022/01/30 05:48:09;;;;;;;0.40;0.40;;;;;;;;;;5081028;28;20214;-74
2022/01/30 05:50:56;;;;;;;0.43;0.40;;;;;;;;;;5085929;28;20301;-74
2022/01/30 05:53:43;;;;;;;0.50;0.30;;;;;;;;;;5074321;28;20310;-75
2022/01/30 05:56:30;;;;;;;0.40;0.40;;;;;;;;;;5086481;28;20630;-75
2022/01/30 05:59:18;;;;;;;0.33;0.33;;;;;;;;;;5077713;28;20734;-75
2022/01/30 06:02:05;;;;;;;0.60;0.47;;;;;;;;;;5083269;28;20714;-74
2022/01/30 06:04:52;;;;;;;0.70;0.40;;;;;;;;;;5079456;28;20287;-74
2022/01/30 06:07:47;;;;;;;0.97;0.50;;;;;;;;;;5075893;28;20231;-74
2022/01/30 06:10:34;;;;;;;0.40;0.40;;;;;;;;;;5087439;28;20203;-75
2022/01/30 06:13:21;;;;;;;0.20;0.20;;;;;;;;;;5077467;28;20300;-74
2022/01/30 06:16:09;;;;;;;0.63;0.40;;;;;;;;;;5085755;28;20290;-75
2022/01/30 06:18:56;;;;;;;0.63;0.40;;;;;;;;;;5079539;28;20685;-74
2022/01/30 06:21:43;;;;;;;0.40;0.30;;;;;;;;;;5082758;28;20280;-74
2022/01/30 06:24:30;;;;;;;1.17;0.60;;;;;;;;;;5086537;28;20241;-75
2022/01/30 06:27:16;;;;;;;0.27;0.27;;;;;;;;;;5077349;28;20672;-75
2022/01/30 06:30:05;;;;;;;0.40;0.40;;;;;;;;;;5088653;28;20316;-75
2022/01/30 06:32:54;;;;;;;0.30;0.30;;;;;;;;;;5081192;28;20231;-75
2022/01/30 06:35:41;;;;;;;0.30;0.30;;;;;;;;;;5085560;28;20602;-75
2022/01/30 06:38:27;;;;;;;0.30;0.30;;;;;;;;;;5080104;28;20698;-75
2022/01/30 06:41:14;;;;;;;0.30;0.30;;;;;;;;;;5080843;28;20361;-75
2022/01/30 06:44:01;;;;;;;0.60;0.40;;;;;;;;;;5086804;28;20289;-75
2022/01/30 06:46:48;;;;;;;0.53;0.50;;;;;;;;;;5079102;28;20285;-75
2022/01/30 06:49:37;;;;;;;0.30;0.30;;;;;;;;;;5091246;28;20257;-75
2022/01/30 06:52:24;;;;;;;0.50;0.30;;;;;;;;;;5083698;28;20643;-75
2022/01/30 06:55:11;;;;;;;0.40;0.30;;;;;;;;;;5084786;28;20235;-74
2022/01/30 06:57:58;;;;;;;0.33;0.33;;;;;;;;;;5085899;28;20236;-74
2022/01/30 07:00:45;;;;;;;0.30;0.30;;;;;;;;;;5081385;28;20688;-74
2022/01/30 07:03:32;;;;;;;0.40;0.40;;;;;;;;;;5089747;28;20221;-74
2022/01/30 07:06:21;;;;;;;0.30;0.30;;;;;;;;;;5080300;28;20294;-74
2022/01/30 07:09:08;;;;;;;0.40;0.40;;;;;;;;;;5088667;28;21327;-74
2022/01/30 07:11:55;;;;;;;0.30;0.30;;;;;;;;;;5077889;28;20638;-74
2022/01/30 07:14:41;;;;;;;0.93;0.47;;;;;;;;;;5084138;28;20234;-74
2022/01/30 07:17:28;;;;;;;0.20;0.20;;;;;;;;;;5089999;28;20237;-74
2022/01/30 07:20:15;;;;;;;2.30;0.63;;;;;;;;;;5080785;28;20220;-75
2022/01/30 07:23:04;;;;;;;0.40;0.40;;;;;;;;;;5089876;28;20287;-75
2022/01/30 07:25:51;;;;;;;0.40;0.40;;;;;;;;;;5078390;28;20267;-74
2022/01/30 07:28:38;;;;;;;0.63;0.40;;;;;;;;;;5088484;28;21130;-74
2022/01/30 07:31:24;;;;;;;0.30;0.30;;;;;;;;;;5082895;28;20767;-74
2022/01/30 07:34:11;;;;;;;0.43;0.23;;;;;;;;;;5082348;28;20249;-74
2022/01/30 07:36:58;;;;;;;0.40;0.40;;;;;;;;;;5088407;28;20213;-74
2022/01/30 07:39:47;;;;;;;0.13;0.13;;;;;;;;;;5081146;28;20832;-74
2022/01/30 07:42:34;;;;;;;0.30;0.30;;;;;;;;;;5087433;28;20199;-74
2022/01/30 07:45:24;;;;;;;0.30;0.30;;;;;;;;;;5083759;28;20243;-75
2022/01/30 07:48:11;;;;;;;0.93;0.50;;;;;;;;;;5087374;28;20693;-74
2022/01/30 07:50:58;;;;;;;0.17;0.17;;;;;;;;;;5085101;28;20648;-74
2022/01/30 07:53:45;;;;;;;0.53;0.40;;;;;;;;;;5081089;28;20226;-74
2022/01/30 07:56:33;;;;;;;0.20;0.20;;;;;;;;;;5087362;28;20576;-74
2022/01/30 07:59:20;;;;;;;0.37;0.33;;;;;;;;;;5077212;28;20229;-75
2022/01/30 08:02:08;;;;;;;0.30;0.30;;;;;;;;;;5087775;28;20677;-74
2022/01/30 08:04:55;;;;;;;0.47;0.47;;;;;;;;;;5077585;28;20246;-75
2022/01/30 08:07:42;;;;;;;0.20;0.20;;;;;;;;;;5085137;28;20204;-74
2022/01/30 08:10:29;;;;;;;0.30;0.30;;;;;;;;;;5083894;28;20313;-74
2022/01/30 08:13:18;;;;;;;0.50;0.23;;;;;;;;;;5081762;28;20334;-75
2022/01/30 08:16:05;;;;;;;0.20;0.20;;;;;;;;;;5089851;28;20202;-74
2022/01/30 08:18:52;;;;;;;0.20;0.20;;;;;;;;;;5077507;28;20282;-74
2022/01/30 08:21:39;;;;;;;0.30;0.30;;;;;;;;;;5089113;28;20260;-75
2022/01/30 08:24:26;;;;;;;0.27;0.27;;;;;;;;;;5081498;28;20198;-75
2022/01/30 08:27:13;;;;;;;0.20;0.20;;;;;;;;;;5084892;28;20207;-74
2022/01/30 08:30:01;;;;;;;0.23;0.23;;;;;;;;;;5087622;28;20227;-75
2022/01/30 08:32:50;;;;;;;0.20;0.20;;;;;;;;;;5079601;28;20300;-75
2022/01/30 08:35:37;;;;;;;1.37;0.30;;;;;;;;;;5081221;28;20771;-75
2022/01/30 08:38:24;;;;;;;0.30;0.30;;;;;;;;;;5079443;28;20303;-75
2022/01/30 08:41:11;;;;;;;0.10;0.10;;;;;;;;;;5079303;28;20294;-75
2022/01/30 08:43:58;;;;;;;0.20;0.20;;;;;;;;;;5082660;28;20310;-76
2022/01/30 08:46:46;;;;;;;1.40;0.50;;;;;;;;;;5083547;28;20228;-75
2022/01/30 08:49:33;;;;;;;0.40;0.40;;;;;;;;;;5085671;28;20641;-76
2022/01/30 08:52:20;;;;;;;0.47;0.47;;;;;;;;;;5078231;28;20324;-74
2022/01/30 08:55:08;;;;;;;0.43;0.43;;;;;;;;;;5088395;28;20215;-76
2022/01/30 08:57:55;;;;;;;0.30;0.30;;;;;;;;;;5075149;28;20211;-74
2022/01/30 09:00:43;;;;;;;0.40;0.40;;;;;;;;;;5082380;28;20210;-76
2022/01/30 09:03:32;;;;;;;0.47;0.47;;;;;;;;;;5080128;28;20600;-75
2022/01/30 09:06:18;;;;;;;0.40;0.40;;;;;;;;;;5077943;28;20294;-73
2022/01/30 09:09:05;;;;;;;0.50;0.50;;;;;;;;;;5084802;28;20327;-74
2022/01/30 09:11:52;;;;;;;0.20;0.20;;;;;;;;;;5073832;28;20645;-75
2022/01/30 09:14:41;;;;;;;0.40;0.40;;;;;;;;;;5084941;28;20265;-76
2022/01/30 09:17:29;;;;;;;0.97;0.30;;;;;;;;;;5079238;28;20222;-75
2022/01/30 09:20:17;;;;;;;0.57;0.37;;;;;;;;;;5084900;28;20206;-76
2022/01/30 09:23:04;;;;;;;0.30;0.30;;;;;;;;;;5083769;28;20231;-74
2022/01/30 09:25:51;;;;;;;0.30;0.30;;;;;;;;;;5078816;28;20289;-73
2022/01/30 09:28:38;;;;;;;0.40;0.40;;;;;;;;;;5088269;28;20761;-74
2022/01/30 09:31:25;;;;;;;0.30;0.30;;;;;;;;;;5076758;28;20629;-74
2022/01/30 09:34:12;;;;;;;0.40;0.40;;;;;;;;;;5078746;28;20355;-74
2022/01/30 09:37:00;;;;;;;0.30;0.30;;;;;;;;;;5080212;28;20202;-74
2022/01/30 09:39:47;;;;;;;1.33;0.57;;;;;;;;;;5081444;28;20218;-74
2022/01/30 09:42:34;;;;;;;0.30;0.30;;;;;;;;;;5082487;28;20214;-73
2022/01/30 09:45:22;;;;;;;0.40;0.37;;;;;;;;;;5077860;28;20290;-73
2022/01/30 09:48:10;;;;;;;0.50;0.40;;;;;;;;;;5087189;28;20582;-73
2022/01/30 09:50:59;;;;;;;0.53;0.50;;;;;;;;;;5076372;28;20284;-74
2022/01/30 09:53:48;;;;;;;0.90;0.40;;;;;;;;;;5084244;28;20710;-74
2022/01/30 09:56:35;;;;;;;0.53;0.40;;;;;;;;;;5079033;28;20214;-74
2022/01/30 09:59:22;;;;;;;0.40;0.40;;;;;;;;;;5081374;28;20226;-74
2022/01/30 10:02:10;;;;;;;0.40;0.40;;;;;;;;;;5085212;28;20210;-74
2022/01/30 10:04:57;;;;;;;0.37;0.37;;;;;;;;;;5077322;28;20207;-74
2022/01/30 10:07:48;;;;;;;0.40;0.40;;;;;;;;;;5088012;28;20206;-74
2022/01/30 10:10:42;;;;;;;1.53;0.50;;;;;;;;;;5077047;28;20789;-74
2022/01/30 10:13:32;;;;;;;0.93;0.57;;;;;;;;;;5080834;28;20581;-74
2022/01/30 10:16:19;;;;;;;0.30;0.30;;;;;;;;;;5083802;28;20219;-74
2022/01/30 10:19:11;;;;;;;0.37;0.37;;;;;;;;;;5079388;28;20212;-73
2022/01/30 10:22:06;;;;;;;0.50;0.50;;;;;;;;;;5090516;28;20677;-73
2022/01/30 10:24:53;;;;;;;0.50;0.50;;;;;;;;;;5080462;28;20227;-73
2022/01/30 10:27:42;;;;;;;0.30;0.30;;;;;;;;;;5086447;28;20231;-73
2022/01/30 10:30:29;;;;;;;0.40;0.40;;;;;;;;;;5084158;28;20224;-74
2022/01/30 10:33:17;;;;;;;0.33;0.33;;;;;;;;;;5081375;28;20269;-74
2022/01/30 10:36:08;;;;;;;0.30;0.30;;;;;;;;;;5089711;28;20256;-74
2022/01/30 10:39:01;;;;;;;0.30;0.30;;;;;;;;;;5078542;28;20209;-74
2022/01/30 10:41:54;;;;;;;0.50;0.50;;;;;;;;;;5088593;28;20304;-74
2022/01/30 10:44:48;;;;;;;0.40;0.40;;;;;;;;;;5083869;28;20201;-74
2022/01/30 10:47:36;;;;;;;0.67;0.40;;;;;;;;;;5080811;28;20319;-75
2022/01/30 10:50:23;;;;;;;0.50;0.50;;;;;;;;;;5081726;28;20560;-75
2022/01/30 10:53:18;;;;;;;0.80;0.80;;;;;;;;;;5082819;28;20241;-74
2022/01/30 10:56:19;;;;;;;1.47;1.00;;;;;;;;;;5092087;28;20236;-75
2022/01/30 10:59:07;;;;;;;0.70;0.70;;;;;;;;;;5080413;28;20267;-74
2022/01/30 11:02:10;;;;;;;2.33;0.87;;;;;;;;;;5085281;28;20235;-75
2022/01/30 11:05:06;;;;;;;0.70;0.70;;;;;;;;;;5086385;28;20230;-74
2022/01/30 11:07:53;;;;;;;0.63;0.63;;;;;;;;;;5077413;28;20210;-75
2022/01/30 11:10:44;;;;;;;3.70;0.70;;;;;;;;;;5089000;28;20252;-72
2022/01/30 11:13:47;;;;;;;0.70;0.70;;;;;;;;;;5082543;28;20824;-76
2022/01/30 11:19:44;;;;;;;0.53;0.53;;;;;;;;;;5086280;28;20739;-76
2022/01/30 11:22:32;;;;;;;0.60;0.60;;;;;;;;;;5079756;28;20282;-76
2022/01/30 11:25:21;;;;;;;0.60;0.50;;;;;;;;;;5086836;28;20333;-75
2022/01/30 11:28:10;;;;;;;0.70;0.70;;;;;;;;;;5081485;28;20234;-77
2022/01/30 11:30:57;;;;;;;0.87;0.60;;;;;;;;;;5083008;28;20221;-76
2022/01/30 11:33:45;;;;;;;1.50;0.63;;;;;;;;;;5084901;28;20256;-76
2022/01/30 11:36:34;;;;;;;0.40;0.40;;;;;;;;;;5082504;28;20231;-76
2022/01/30 11:39:21;;;;;;;0.93;0.50;;;;;;;;;;5089199;28;20267;-75
2022/01/30 11:42:10;;;;;;;0.50;0.30;;;;;;;;;;5078663;28;20217;-77
2022/01/30 11:45:17;;;;;;;0.70;0.30;;;;;;;;;;5085291;28;20680;-76
2022/01/30 11:48:12;;;;;;;0.40;0.40;;;;;;;;;;5084911;28;20284;-76
2022/01/30 11:51:03;;;;;;;0.70;0.40;;;;;;;;;;5079543;28;20297;-74
2022/01/30 11:53:52;;;;;;;0.30;0.23;;;;;;;;;;5083668;28;20289;-75
2022/01/30 11:56:38;;;;;;;1.30;0.50;;;;;;;;;;5077486;28;20286;-75
2022/01/30 11:59:36;;;;;;;1.70;0.40;;;;;;;;;;5079579;28;20603;-76
2022/01/30 12:02:23;;;;;;;1.07;0.40;;;;;;;;;;5081495;28;20200;-76
2022/01/30 12:05:11;;;;;;;0.30;0.30;;;;;;;;;;5078996;28;20201;-76
2022/01/30 12:07:58;;;;;;;0.30;0.30;;;;;;;;;;5085196;28;20232;-75
2022/01/30 12:10:46;;;;;;;0.40;0.40;;;;;;;;;;5078482;28;20324;-76
2022/01/30 12:13:45;;;;;;;0.20;0.20;;;;;;;;;;5086104;28;20221;-76
2022/01/30 12:16:46;;;;;;;0.37;0.20;;;;;;;;;;5082542;28;20753;-76
2022/01/30 12:20:09;;;;;;;0.30;0.30;;;;;;;;;;5079863;28;20225;-76
2022/01/30 12:22:57;;;;;;;1.33;0.70;;;;;;;;;;5081843;28;20207;-76
2022/01/30 12:25:56;;;;;;;1.53;0.70;;;;;;;;;;5079316;28;20257;-76
2022/01/30 12:28:45;;;;;;;0.50;0.50;;;;;;;;;;5083478;28;20235;-76
2022/01/30 12:31:34;;;;;;;0.50;0.50;;;;;;;;;;5079195;28;20217;-76
2022/01/30 12:34:21;;;;;;;1.90;0.70;;;;;;;;;;5078087;28;20236;-75
2022/01/30 12:37:10;;;;;;;0.77;0.77;;;;;;;;;;5087411;28;20252;-75
2022/01/30 12:39:58;;;;;;;0.53;0.53;;;;;;;;;;5079744;28;20534;-75
2022/01/30 12:42:46;;;;;;;0.67;0.30;;;;;;;;;;5076772;28;20337;-76
2022/01/30 12:45:34;;;;;;;0.30;0.30;;;;;;;;;;5084748;28;20220;-75
2022/01/30 12:48:20;;;;;;;0.30;0.30;;;;;;;;;;5082288;28;20208;-75
2022/01/30 12:51:13;;;;;;;0.40;0.40;;;;;;;;;;5086936;28;20319;-75
2022/01/30 12:54:01;;;;;;;0.60;0.40;;;;;;;;;;5075579;28;20226;-75
2022/01/30 12:56:48;;;;;;;0.63;0.40;;;;;;;;;;5070239;28;20281;-76
2022/01/30 12:59:37;;;;;;;0.30;0.30;;;;;;;;;;5081578;28;20289;-75
2022/01/30 13:02:25;;;;;;;0.50;0.50;;;;;;;;;;5085868;28;20278;-76
2022/01/30 13:05:13;;;;;;;0.37;0.20;;;;;;;;;;5072182;28;20195;-75
2022/01/30 13:08:00;;;;;;;1.60;0.50;;;;;;;;;;5081555;28;20206;-76
2022/01/30 13:10:47;;;;;;;0.40;0.40;;;;;;;;;;5080532;28;20293;-76
2022/01/30 13:13:55;;;;;;;0.33;0.33;;;;;;;;;;5076628;28;20830;-76
2022/01/30 13:16:45;;;;;;;0.23;0.23;;;;;;;;;;5073969;28;20698;-76
2022/01/30 13:19:34;;;;;;;0.50;0.50;;;;;;;;;;5085939;28;20230;-76
2022/01/30 13:22:28;;;;;;;1.00;0.47;;;;;;;;;;5080459;28;20686;-74
2022/01/30 13:25:17;;;;;;;0.60;0.60;;;;;;;;;;5078943;28;20195;-74
2022/01/30 13:28:04;;;;;;;0.67;0.67;;;;;;;;;;5076429;28;20231;-75
2022/01/30 13:30:51;;;;;;;0.53;0.53;;;;;;;;;;5070087;28;20283;-74
2022/01/30 13:33:39;;;;;;;0.50;0.47;;;;;;;;;;5083462;28;20236;-75
2022/01/30 13:36:27;;;;;;;0.50;0.50;;;;;;;;;;5074114;28;20227;-75
2022/01/30 13:39:16;;;;;;;0.57;0.53;;;;;;;;;;5087360;28;20217;-74
2022/01/30 13:42:35;;;;;;;0.50;0.50;;;;;;;;;;5083597;28;20256;-74
2022/01/30 13:48:43;;;;;;;0.57;0.57;;;;;;;;;;5084923;28;20319;-75
2022/01/30 13:51:30;;;;;;;0.43;0.43;;;;;;;;;;5078838;28;20628;-75
2022/01/30 13:54:17;;;;;;;0.60;0.60;;;;;;;;;;5089792;28;20556;-76
2022/01/30 13:57:06;;;;;;;0.30;0.30;;;;;;;;;;5079930;28;20224;-76
2022/01/30 14:00:10;;;;;;;0.30;0.30;;;;;;;;;;5074970;28;20344;-77
2022/01/30 14:03:00;;;;;;;0.23;0.23;;;;;;;;;;5090670;28;20294;-76
2022/01/30 14:05:49;;;;;;;0.60;0.40;;;;;;;;;;5084913;28;20275;-74
2022/01/30 14:08:36;;;;;;;0.40;0.33;;;;;;;;;;5091123;28;20231;-75
2022/01/30 14:11:26;;;;;;;1.57;0.60;;;;;;;;;;5081431;28;20320;-75
2022/01/30 14:14:17;;;;;;;0.70;0.37;;;;;;;;;;5089564;28;20232;-77
2022/01/30 14:17:07;;;;;;;0.20;0.20;;;;;;;;;;5087334;28;20202;-77
2022/01/30 14:20:03;;;;;;;0.40;0.37;;;;;;;;;;5084061;28;20262;-75
2022/01/30 14:23:05;;;;;;;0.90;0.57;;;;;;;;;;5080402;28;20682;-74
2022/01/30 14:25:53;;;;;;;0.40;0.40;;;;;;;;;;5081657;28;20209;-76
2022/01/30 14:28:40;;;;;;;1.60;0.40;;;;;;;;;;5089860;28;20227;-74
2022/01/30 14:31:27;;;;;;;0.50;0.50;;;;;;;;;;5081739;28;20738;-76
2022/01/30 14:34:13;;;;;;;0.40;0.40;;;;;;;;;;5082352;28;20221;-76
2022/01/30 14:37:03;;;;;;;0.60;0.40;;;;;;;;;;5089954;28;20290;-75
2022/01/30 14:39:56;;;;;;;0.30;0.30;;;;;;;;;;5082571;28;20209;-75
2022/01/30 14:42:43;;;;;;;0.30;0.30;;;;;;;;;;5089811;28;20212;-75
2022/01/30 14:45:31;;;;;;;0.23;0.23;;;;;;;;;;5080216;28;20240;-75
2022/01/30 14:48:18;;;;;;;0.23;0.23;;;;;;;;;;5080917;28;20735;-76
2022/01/30 14:51:06;;;;;;;1.50;0.50;;;;;;;;;;5083638;28;20742;-76
2022/01/30 14:53:53;;;;;;;0.30;0.30;;;;;;;;;;5082406;28;20296;-76
2022/01/30 14:56:41;;;;;;;0.60;0.60;;;;;;;;;;5089498;28;20231;-76
2022/01/30 14:59:28;;;;;;;0.70;0.70;;;;;;;;;;5086818;28;20341;-74
2022/01/30 15:02:15;;;;;;;0.60;0.60;;;;;;;;;;5090289;28;20270;-74
2022/01/30 15:05:02;;;;;;;0.50;0.50;;;;;;;;;;5084680;28;20779;-73
2022/01/30 15:07:50;;;;;;;1.73;0.80;;;;;;;;;;5096024;28;20590;-74
2022/01/30 15:10:36;;;;;;;0.73;0.73;;;;;;;;;;5086766;28;20333;-75
2022/01/30 15:13:25;;;;;;;0.70;0.70;;;;;;;;;;5083227;28;20305;-74
2022/01/30 15:16:19;;;;;;;0.50;0.50;;;;;;;;;;5085794;28;20250;-75
2022/01/30 15:19:07;;;;;;;0.67;0.60;;;;;;;;;;5077491;28;20219;-73
2022/01/30 15:21:54;;;;;;;0.70;0.70;;;;;;;;;;5079800;28;20204;-73
2022/01/30 15:24:41;;;;;;;0.80;0.80;;;;;;;;;;5085179;28;20265;-73
2022/01/30 15:27:28;;;;;;;0.60;0.60;;;;;;;;;;5084389;28;20195;-73
2022/01/30 15:30:16;;;;;;;0.47;0.47;;;;;;;;;;5087921;28;20288;-74
2022/01/30 15:33:03;;;;;;;0.60;0.60;;;;;;;;;;5081188;28;20490;-74
2022/01/30 15:35:50;;;;;;;0.97;0.80;;;;;;;;;;5089504;28;20365;-75
2022/01/30 15:38:37;;;;;;;0.83;0.50;;;;;;;;;;5081424;28;20230;-74
2022/01/30 15:41:24;;;;;;;0.60;0.60;;;;;;;;;;5071266;28;20196;-74
2022/01/30 15:44:15;;;;;;;0.60;0.60;;;;;;;;;;5086305;28;20725;-75
2022/01/30 15:50:09;;;;;;;0.50;0.50;;;;;;;;;;5090005;28;20198;-74
2022/01/30 15:52:57;;;;;;;0.70;0.70;;;;;;;;;;5083496;28;20253;-75
2022/01/30 15:55:44;;;;;;;0.53;0.53;;;;;;;;;;5088933;28;20255;-75
2022/01/30 15:58:31;;;;;;;0.57;0.57;;;;;;;;;;5084155;28;20288;-74
2022/01/30 16:01:18;;;;;;;1.10;1.10;;;;;;;;;;5079070;28;20215;-74
2022/01/30 16:04:06;;;;;;;1.73;1.00;;;;;;;;;;5082865;28;20196;-74
2022/01/30 16:06:53;;;;;;;0.90;0.90;;;;;;;;;;5082500;28;20331;-75
2022/01/30 16:09:43;;;;;;;1.20;1.20;;;;;;;;;;5072178;28;20212;-74
2022/01/30 16:15:38;;;;;;;0.90;0.90;;;;;;;;;;5062392;28;20256;-74
2022/01/30 16:18:25;;;;;;;1.10;1.10;;;;;;;;;;5085765;28;20202;-75
2022/01/30 16:21:13;;;;;;;1.30;1.30;;;;;;;;;;5078732;28;20261;-75
2022/01/30 16:24:01;;;;;;;1.10;1.10;;;;;;;;;;5078034;28;20211;-76
2022/01/30 16:26:48;;;;;;;1.07;0.93;;;;;;;;;;5078628;28;20239;-74
2022/01/30 16:29:35;;;;;;;1.33;1.23;;;;;;;;;;5073311;28;20315;-73
2022/01/30 16:32:22;;;;;;;1.23;1.13;;;;;;;;;;5079740;28;20207;-75
2022/01/30 16:35:11;;;;;;;1.10;1.10;;;;;;;;;;5074983;28;20339;-73
2022/01/30 16:38:01;;;;;;;0.80;0.80;;;;;;;;;;5079567;28;20204;-74
2022/01/30 16:40:48;;;;;;;0.70;0.70;;;;;;;;;;5081447;28;20293;-75
2022/01/30 16:43:45;;;;;;;0.93;0.93;;;;;;;;;;5085372;28;20700;-76
2022/01/30 16:47:01;;;;;;;0.90;0.90;;;;;;;;;;5080311;28;20299;-76
2022/01/30 16:49:48;;;;;;;1.07;0.97;;;;;;;;;;5074390;28;20612;-74
2022/01/30 16:52:35;;;;;;;0.80;0.80;;;;;;;;;;5088798;28;20262;-74
2022/01/30 16:55:24;;;;;;;0.70;0.70;;;;;;;;;;5081224;28;20257;-75
2022/01/30 16:58:12;;;;;;;1.13;1.03;;;;;;;;;;5079039;28;20614;-76
2022/01/30 17:00:59;;;;;;;1.00;1.00;;;;;;;;;;5079736;28;20251;-75
2022/01/30 17:03:46;;;;;;;1.70;1.07;;;;;;;;;;5069778;28;20248;-75
2022/01/30 17:06:33;;;;;;;1.17;1.07;;;;;;;;;;5090552;28;20678;-76
2022/01/30 17:09:34;;;;;;;0.90;0.90;;;;;;;;;;5091495;28;20476;-75
2022/01/30 17:12:32;;;;;;;0.80;0.80;;;;;;;;;;5088276;28;20420;-74
2022/01/30 17:15:18;;;;;;;1.03;1.03;;;;;;;;;;5081548;28;20238;-73
2022/01/30 17:18:09;;;;;;;0.93;0.93;;;;;;;;;;5079849;28;20388;-74
2022/01/30 17:20:56;;;;;;;1.03;0.97;;;;;;;;;;5081236;28;20220;-74
2022/01/30 17:23:43;;;;;;;0.90;0.90;;;;;;;;;;5082001;28;20245;-74
2022/01/30 17:26:31;;;;;;;0.97;0.97;;;;;;;;;;5076466;28;20369;-75
2022/01/30 17:29:20;;;;;;;1.83;0.97;;;;;;;;;;5076934;28;20747;-74
2022/01/30 17:32:07;;;;;;;1.23;1.03;;;;;;;;;;5086167;28;20297;-74
2022/01/30 17:34:54;;;;;;;1.13;1.10;;;;;;;;;;5080747;28;20232;-76
2022/01/30 17:37:41;;;;;;;0.83;0.83;;;;;;;;;;5070443;28;20280;-74
2022/01/30 17:40:29;;;;;;;1.00;1.00;;;;;;;;;;5076868;28;20200;-76